ADDS METAR Data

Data at: 1846 UTC 13 Dec 2017

METAR for:LHBC (Bekescsaba Arpt, --, HU)
Text:LHBC 131745Z 16001KT CAVOK 04/03 Q1017
Temperature: 4.0°C ( 39°F)
Dewpoint: 3.0°C ( 37°F) [RH = 93%]
Pressure (altimeter):30.03 inches Hg (1017.0 mb)
Winds:from the SSE (160 degrees) at 1 MPH (1 knots; 0.5 m/s)
Visibility:6 or more sm (10+ km)
Ceiling:ceiling and visibility are OK
Clouds:unknown

TAF for:LHBC (Bekescsaba Arpt, --, HU)
Text:No data found